sensor_id;sensor_type;location;lat;lon;timestamp;P1;durP1;ratioP1;P2;durP2;ratioP2
55672;SDS011;41554;45.366;20.400;2024-02-23T00:01:15;15.18;;;13.02;;
55672;SDS011;41554;45.366;20.400;2024-02-23T00:03:41;26.15;;;12.05;;
55672;SDS011;41554;45.366;20.400;2024-02-23T00:06:08;18.65;;;15.02;;
55672;SDS011;41554;45.366;20.400;2024-02-23T00:08:34;24.30;;;14.02;;
55672;SDS011;41554;45.366;20.400;2024-02-23T00:11:00;18.98;;;14.15;;
55672;SDS011;41554;45.366;20.400;2024-02-23T00:13:26;17.20;;;14.70;;
55672;SDS011;41554;45.366;20.400;2024-02-23T00:15:52;17.50;;;14.10;;
55672;SDS011;41554;45.366;20.400;2024-02-23T00:18:18;18.70;;;12.55;;
55672;SDS011;41554;45.366;20.400;2024-02-23T00:20:46;29.08;;;16.92;;
55672;SDS011;41554;45.366;20.400;2024-02-23T00:23:12;28.23;;;20.17;;
55672;SDS011;41554;45.366;20.400;2024-02-23T00:25:38;25.98;;;17.77;;
55672;SDS011;41554;45.366;20.400;2024-02-23T00:28:04;14.15;;;12.25;;
55672;SDS011;41554;45.366;20.400;2024-02-23T00:30:30;23.38;;;13.98;;
55672;SDS011;41554;45.366;20.400;2024-02-23T00:32:56;24.90;;;13.13;;
55672;SDS011;41554;45.366;20.400;2024-02-23T00:35:22;33.17;;;13.70;;
55672;SDS011;41554;45.366;20.400;2024-02-23T00:37:48;23.08;;;11.93;;
55672;SDS011;41554;45.366;20.400;2024-02-23T00:40:14;22.02;;;13.50;;
55672;SDS011;41554;45.366;20.400;2024-02-23T00:42:40;24.17;;;13.68;;
55672;SDS011;41554;45.366;20.400;2024-02-23T00:45:07;23.73;;;18.13;;
55672;SDS011;41554;45.366;20.400;2024-02-23T00:47:33;34.10;;;17.83;;
55672;SDS011;41554;45.366;20.400;2024-02-23T00:50:00;19.27;;;17.17;;
55672;SDS011;41554;45.366;20.400;2024-02-23T00:52:27;21.20;;;17.35;;
55672;SDS011;41554;45.366;20.400;2024-02-23T00:54:53;33.42;;;20.33;;
55672;SDS011;41554;45.366;20.400;2024-02-23T00:57:19;30.30;;;17.63;;
55672;SDS011;41554;45.366;20.400;2024-02-23T00:59:52;25.23;;;16.63;;
55672;SDS011;41554;45.366;20.400;2024-02-23T01:02:18;38.22;;;17.50;;
55672;SDS011;41554;45.366;20.400;2024-02-23T01:04:44;22.95;;;15.43;;
55672;SDS011;41554;45.366;20.400;2024-02-23T01:07:10;23.33;;;13.85;;
55672;SDS011;41554;45.366;20.400;2024-02-23T01:09:36;26.70;;;15.27;;
55672;SDS011;41554;45.366;20.400;2024-02-23T01:12:02;22.73;;;15.23;;
55672;SDS011;41554;45.366;20.400;2024-02-23T01:14:28;25.23;;;17.83;;
55672;SDS011;41554;45.366;20.400;2024-02-23T01:16:54;21.67;;;15.20;;
55672;SDS011;41554;45.366;20.400;2024-02-23T01:19:20;26.45;;;20.23;;
55672;SDS011;41554;45.366;20.400;2024-02-23T01:21:47;21.25;;;17.48;;
55672;SDS011;41554;45.366;20.400;2024-02-23T01:24:14;21.33;;;18.05;;
55672;SDS011;41554;45.366;20.400;2024-02-23T01:26:40;26.60;;;17.42;;
55672;SDS011;41554;45.366;20.400;2024-02-23T01:29:06;24.45;;;16.63;;
55672;SDS011;41554;45.366;20.400;2024-02-23T01:31:32;21.35;;;12.52;;
55672;SDS011;41554;45.366;20.400;2024-02-23T01:33:58;20.38;;;15.10;;
55672;SDS011;41554;45.366;20.400;2024-02-23T01:36:24;17.45;;;13.32;;
55672;SDS011;41554;45.366;20.400;2024-02-23T01:38:50;24.45;;;15.15;;
55672;SDS011;41554;45.366;20.400;2024-02-23T01:41:16;17.48;;;13.25;;
55672;SDS011;41554;45.366;20.400;2024-02-23T01:43:42;16.35;;;11.95;;
55672;SDS011;41554;45.366;20.400;2024-02-23T01:46:08;28.67;;;13.98;;
55672;SDS011;41554;45.366;20.400;2024-02-23T01:48:38;18.85;;;12.75;;
55672;SDS011;41554;45.366;20.400;2024-02-23T01:51:06;13.05;;;10.38;;
55672;SDS011;41554;45.366;20.400;2024-02-23T01:53:32;17.88;;;10.95;;
55672;SDS011;41554;45.366;20.400;2024-02-23T01:55:58;12.68;;;8.88;;
55672;SDS011;41554;45.366;20.400;2024-02-23T01:58:25;14.60;;;10.13;;
55672;SDS011;41554;45.366;20.400;2024-02-23T02:00:51;18.38;;;12.55;;
55672;SDS011;41554;45.366;20.400;2024-02-23T02:03:17;19.60;;;12.63;;
55672;SDS011;41554;45.366;20.400;2024-02-23T02:05:43;19.88;;;13.75;;
55672;SDS011;41554;45.366;20.400;2024-02-23T02:08:09;24.80;;;14.35;;
55672;SDS011;41554;45.366;20.400;2024-02-23T02:10:36;16.67;;;12.00;;
55672;SDS011;41554;45.366;20.400;2024-02-23T02:13:02;19.73;;;12.77;;
55672;SDS011;41554;45.366;20.400;2024-02-23T02:15:29;19.20;;;14.43;;
55672;SDS011;41554;45.366;20.400;2024-02-23T02:17:55;17.90;;;10.65;;
55672;SDS011;41554;45.366;20.400;2024-02-23T02:20:23;16.38;;;12.82;;
55672;SDS011;41554;45.366;20.400;2024-02-23T02:22:51;24.42;;;14.07;;
55672;SDS011;41554;45.366;20.400;2024-02-23T02:25:17;22.23;;;13.63;;
55672;SDS011;41554;45.366;20.400;2024-02-23T02:27:44;19.33;;;10.27;;
55672;SDS011;41554;45.366;20.400;2024-02-23T02:30:13;24.92;;;10.35;;
55672;SDS011;41554;45.366;20.400;2024-02-23T02:32:39;21.92;;;13.98;;
55672;SDS011;41554;45.366;20.400;2024-02-23T02:35:05;21.95;;;15.05;;
55672;SDS011;41554;45.366;20.400;2024-02-23T02:37:31;20.80;;;13.27;;
55672;SDS011;41554;45.366;20.400;2024-02-23T02:39:57;23.80;;;14.88;;
55672;SDS011;41554;45.366;20.400;2024-02-23T02:42:23;20.17;;;14.68;;
55672;SDS011;41554;45.366;20.400;2024-02-23T02:44:49;31.45;;;16.70;;
55672;SDS011;41554;45.366;20.400;2024-02-23T02:47:15;22.65;;;11.93;;
55672;SDS011;41554;45.366;20.400;2024-02-23T02:49:42;38.55;;;17.70;;
55672;SDS011;41554;45.366;20.400;2024-02-23T02:52:08;18.88;;;12.68;;
55672;SDS011;41554;45.366;20.400;2024-02-23T02:54:34;24.77;;;14.75;;
55672;SDS011;41554;45.366;20.400;2024-02-23T02:57:00;14.73;;;12.68;;
55672;SDS011;41554;45.366;20.400;2024-02-23T02:59:26;29.10;;;13.85;;
55672;SDS011;41554;45.366;20.400;2024-02-23T03:01:52;13.45;;;9.93;;
55672;SDS011;41554;45.366;20.400;2024-02-23T03:04:18;20.77;;;10.25;;
55672;SDS011;41554;45.366;20.400;2024-02-23T03:06:44;28.10;;;13.23;;
55672;SDS011;41554;45.366;20.400;2024-02-23T03:09:10;20.10;;;13.85;;
55672;SDS011;41554;45.366;20.400;2024-02-23T03:11:36;13.43;;;10.52;;
55672;SDS011;41554;45.366;20.400;2024-02-23T03:14:02;20.00;;;12.00;;
55672;SDS011;41554;45.366;20.400;2024-02-23T03:16:29;19.15;;;10.05;;
55672;SDS011;41554;45.366;20.400;2024-02-23T03:18:56;9.32;;;8.30;;
55672;SDS011;41554;45.366;20.400;2024-02-23T03:21:23;15.48;;;9.23;;
55672;SDS011;41554;45.366;20.400;2024-02-23T03:23:49;17.67;;;11.73;;
55672;SDS011;41554;45.366;20.400;2024-02-23T03:26:15;17.42;;;13.88;;
55672;SDS011;41554;45.366;20.400;2024-02-23T03:28:42;29.88;;;13.18;;
55672;SDS011;41554;45.366;20.400;2024-02-23T03:31:08;13.70;;;10.98;;
55672;SDS011;41554;45.366;20.400;2024-02-23T03:33:34;23.20;;;11.25;;
55672;SDS011;41554;45.366;20.400;2024-02-23T03:36:00;30.90;;;13.43;;
55672;SDS011;41554;45.366;20.400;2024-02-23T03:38:26;25.73;;;12.25;;
55672;SDS011;41554;45.366;20.400;2024-02-23T03:40:54;13.40;;;9.77;;
55672;SDS011;41554;45.366;20.400;2024-02-23T03:43:20;12.73;;;9.52;;
55672;SDS011;41554;45.366;20.400;2024-02-23T03:45:46;15.77;;;10.55;;
55672;SDS011;41554;45.366;20.400;2024-02-23T03:48:12;14.82;;;11.40;;
55672;SDS011;41554;45.366;20.400;2024-02-23T03:50:38;19.60;;;10.73;;
55672;SDS011;41554;45.366;20.400;2024-02-23T03:53:05;11.13;;;8.93;;
55672;SDS011;41554;45.366;20.400;2024-02-23T03:55:31;12.88;;;10.07;;
55672;SDS011;41554;45.366;20.400;2024-02-23T03:57:57;17.50;;;10.82;;
55672;SDS011;41554;45.366;20.400;2024-02-23T04:00:24;13.02;;;8.88;;
55672;SDS011;41554;45.366;20.400;2024-02-23T04:02:50;28.67;;;11.82;;
55672;SDS011;41554;45.366;20.400;2024-02-23T04:05:17;19.85;;;14.88;;
55672;SDS011;41554;45.366;20.400;2024-02-23T04:07:44;52.47;;;13.70;;
55672;SDS011;41554;45.366;20.400;2024-02-23T04:10:10;17.98;;;13.82;;
55672;SDS011;41554;45.366;20.400;2024-02-23T04:12:41;18.05;;;13.88;;
55672;SDS011;41554;45.366;20.400;2024-02-23T04:15:08;13.25;;;10.90;;
55672;SDS011;41554;45.366;20.400;2024-02-23T04:17:34;25.52;;;10.23;;
55672;SDS011;41554;45.366;20.400;2024-02-23T04:20:00;12.90;;;8.93;;
55672;SDS011;41554;45.366;20.400;2024-02-23T04:22:26;17.67;;;9.30;;
55672;SDS011;41554;45.366;20.400;2024-02-23T04:24:52;13.88;;;10.55;;
55672;SDS011;41554;45.366;20.400;2024-02-23T04:27:18;17.40;;;7.85;;
55672;SDS011;41554;45.366;20.400;2024-02-23T04:29:44;8.55;;;6.88;;
55672;SDS011;41554;45.366;20.400;2024-02-23T04:32:10;12.80;;;9.82;;
55672;SDS011;41554;45.366;20.400;2024-02-23T04:34:36;8.85;;;7.45;;
55672;SDS011;41554;45.366;20.400;2024-02-23T04:37:04;14.95;;;8.82;;
55672;SDS011;41554;45.366;20.400;2024-02-23T04:39:30;12.10;;;7.03;;
55672;SDS011;41554;45.366;20.400;2024-02-23T04:41:56;9.48;;;7.82;;
55672;SDS011;41554;45.366;20.400;2024-02-23T04:44:23;16.95;;;7.40;;
55672;SDS011;41554;45.366;20.400;2024-02-23T04:46:49;14.32;;;8.10;;
55672;SDS011;41554;45.366;20.400;2024-02-23T04:49:15;15.70;;;8.48;;
55672;SDS011;41554;45.366;20.400;2024-02-23T04:51:41;9.73;;;6.13;;
55672;SDS011;41554;45.366;20.400;2024-02-23T04:54:07;11.32;;;7.47;;
55672;SDS011;41554;45.366;20.400;2024-02-23T04:56:33;16.02;;;9.07;;
55672;SDS011;41554;45.366;20.400;2024-02-23T04:59:00;10.80;;;7.93;;
55672;SDS011;41554;45.366;20.400;2024-02-23T05:01:26;13.18;;;9.82;;
55672;SDS011;41554;45.366;20.400;2024-02-23T05:03:52;10.63;;;7.30;;
55672;SDS011;41554;45.366;20.400;2024-02-23T05:06:18;11.63;;;7.88;;
55672;SDS011;41554;45.366;20.400;2024-02-23T05:08:44;9.40;;;7.72;;
55672;SDS011;41554;45.366;20.400;2024-02-23T05:11:10;11.07;;;8.30;;
55672;SDS011;41554;45.366;20.400;2024-02-23T05:13:36;14.90;;;8.70;;
55672;SDS011;41554;45.366;20.400;2024-02-23T05:16:04;10.20;;;7.82;;
55672;SDS011;41554;45.366;20.400;2024-02-23T05:18:30;16.67;;;10.82;;
55672;SDS011;41554;45.366;20.400;2024-02-23T05:20:56;8.65;;;7.75;;
55672;SDS011;41554;45.366;20.400;2024-02-23T05:23:22;18.85;;;10.07;;
55672;SDS011;41554;45.366;20.400;2024-02-23T05:25:48;11.43;;;9.93;;
55672;SDS011;41554;45.366;20.400;2024-02-23T05:28:14;9.82;;;6.72;;
55672;SDS011;41554;45.366;20.400;2024-02-23T05:30:40;12.55;;;10.15;;
55672;SDS011;41554;45.366;20.400;2024-02-23T05:33:07;20.95;;;10.88;;
55672;SDS011;41554;45.366;20.400;2024-02-23T05:35:33;18.85;;;9.88;;
55672;SDS011;41554;45.366;20.400;2024-02-23T05:37:59;15.50;;;9.68;;
55672;SDS011;41554;45.366;20.400;2024-02-23T05:40:25;16.17;;;11.68;;
55672;SDS011;41554;45.366;20.400;2024-02-23T05:42:51;12.48;;;9.52;;
55672;SDS011;41554;45.366;20.400;2024-02-23T05:45:18;9.75;;;8.02;;
55672;SDS011;41554;45.366;20.400;2024-02-23T05:47:44;13.15;;;8.93;;
55672;SDS011;41554;45.366;20.400;2024-02-23T05:50:10;13.07;;;8.25;;
55672;SDS011;41554;45.366;20.400;2024-02-23T05:52:36;10.93;;;8.93;;
55672;SDS011;41554;45.366;20.400;2024-02-23T05:55:04;11.30;;;8.48;;
55672;SDS011;41554;45.366;20.400;2024-02-23T05:57:30;13.68;;;10.25;;
55672;SDS011;41554;45.366;20.400;2024-02-23T05:59:56;20.42;;;10.02;;
55672;SDS011;41554;45.366;20.400;2024-02-23T06:02:22;12.52;;;8.95;;
55672;SDS011;41554;45.366;20.400;2024-02-23T06:04:49;20.95;;;9.38;;
55672;SDS011;41554;45.366;20.400;2024-02-23T06:07:15;13.40;;;10.15;;
55672;SDS011;41554;45.366;20.400;2024-02-23T06:09:44;13.43;;;8.55;;
55672;SDS011;41554;45.366;20.400;2024-02-23T06:12:10;9.98;;;6.55;;
55672;SDS011;41554;45.366;20.400;2024-02-23T06:14:36;15.40;;;8.38;;
55672;SDS011;41554;45.366;20.400;2024-02-23T06:17:02;5.88;;;5.10;;
55672;SDS011;41554;45.366;20.400;2024-02-23T06:19:29;13.38;;;8.70;;
55672;SDS011;41554;45.366;20.400;2024-02-23T06:21:55;10.40;;;7.68;;
55672;SDS011;41554;45.366;20.400;2024-02-23T06:24:21;12.20;;;7.35;;
55672;SDS011;41554;45.366;20.400;2024-02-23T06:26:47;10.63;;;6.97;;
55672;SDS011;41554;45.366;20.400;2024-02-23T06:29:14;11.13;;;6.45;;
55672;SDS011;41554;45.366;20.400;2024-02-23T06:31:40;10.05;;;6.55;;
55672;SDS011;41554;45.366;20.400;2024-02-23T06:34:06;10.07;;;6.13;;
55672;SDS011;41554;45.366;20.400;2024-02-23T06:36:33;9.43;;;7.30;;
55672;SDS011;41554;45.366;20.400;2024-02-23T06:38:59;8.90;;;6.22;;
55672;SDS011;41554;45.366;20.400;2024-02-23T06:41:25;9.75;;;6.82;;
55672;SDS011;41554;45.366;20.400;2024-02-23T06:43:51;10.60;;;8.35;;
55672;SDS011;41554;45.366;20.400;2024-02-23T06:46:21;13.68;;;8.07;;
55672;SDS011;41554;45.366;20.400;2024-02-23T06:48:47;15.35;;;10.95;;
55672;SDS011;41554;45.366;20.400;2024-02-23T06:51:13;15.00;;;10.20;;
55672;SDS011;41554;45.366;20.400;2024-02-23T06:53:41;16.30;;;8.80;;
55672;SDS011;41554;45.366;20.400;2024-02-23T06:56:07;20.70;;;9.25;;
55672;SDS011;41554;45.366;20.400;2024-02-23T06:58:33;16.42;;;10.02;;
55672;SDS011;41554;45.366;20.400;2024-02-23T07:01:00;11.85;;;10.15;;
55672;SDS011;41554;45.366;20.400;2024-02-23T07:03:28;22.67;;;12.90;;
55672;SDS011;41554;45.366;20.400;2024-02-23T07:05:55;18.33;;;10.45;;
55672;SDS011;41554;45.366;20.400;2024-02-23T07:08:21;19.30;;;11.00;;
55672;SDS011;41554;45.366;20.400;2024-02-23T07:10:47;13.02;;;9.45;;
55672;SDS011;41554;45.366;20.400;2024-02-23T07:13:13;14.82;;;9.13;;
55672;SDS011;41554;45.366;20.400;2024-02-23T07:15:39;19.98;;;11.30;;
55672;SDS011;41554;45.366;20.400;2024-02-23T07:18:05;17.20;;;10.80;;
55672;SDS011;41554;45.366;20.400;2024-02-23T07:20:34;10.10;;;7.50;;
55672;SDS011;41554;45.366;20.400;2024-02-23T07:23:00;15.63;;;8.50;;
55672;SDS011;41554;45.366;20.400;2024-02-23T07:25:26;29.08;;;8.55;;
55672;SDS011;41554;45.366;20.400;2024-02-23T07:27:53;10.88;;;7.07;;
55672;SDS011;41554;45.366;20.400;2024-02-23T07:30:19;9.93;;;7.78;;
55672;SDS011;41554;45.366;20.400;2024-02-23T07:32:45;7.20;;;6.20;;
55672;SDS011;41554;45.366;20.400;2024-02-23T07:35:14;13.77;;;7.90;;
55672;SDS011;41554;45.366;20.400;2024-02-23T07:37:40;18.00;;;9.80;;
55672;SDS011;41554;45.366;20.400;2024-02-23T07:40:06;9.80;;;6.07;;
55672;SDS011;41554;45.366;20.400;2024-02-23T07:42:33;12.73;;;9.32;;
55672;SDS011;41554;45.366;20.400;2024-02-23T07:45:05;13.80;;;8.75;;
55672;SDS011;41554;45.366;20.400;2024-02-23T07:47:32;13.43;;;8.18;;
55672;SDS011;41554;45.366;20.400;2024-02-23T07:49:58;9.88;;;6.70;;
55672;SDS011;41554;45.366;20.400;2024-02-23T07:52:25;9.40;;;7.72;;
55672;SDS011;41554;45.366;20.400;2024-02-23T07:54:51;15.93;;;9.13;;
55672;SDS011;41554;45.366;20.400;2024-02-23T07:57:18;12.93;;;8.38;;
55672;SDS011;41554;45.366;20.400;2024-02-23T07:59:44;18.08;;;10.35;;
55672;SDS011;41554;45.366;20.400;2024-02-23T08:02:10;14.70;;;8.15;;
55672;SDS011;41554;45.366;20.400;2024-02-23T08:04:36;12.43;;;9.85;;
55672;SDS011;41554;45.366;20.400;2024-02-23T08:07:03;12.35;;;11.02;;
55672;SDS011;41554;45.366;20.400;2024-02-23T08:09:29;20.88;;;9.35;;
55672;SDS011;41554;45.366;20.400;2024-02-23T08:11:55;27.95;;;10.15;;
55672;SDS011;41554;45.366;20.400;2024-02-23T08:14:21;15.77;;;9.70;;
55672;SDS011;41554;45.366;20.400;2024-02-23T08:16:48;18.10;;;8.60;;
55672;SDS011;41554;45.366;20.400;2024-02-23T08:19:15;15.13;;;8.68;;
55672;SDS011;41554;45.366;20.400;2024-02-23T08:21:41;15.25;;;10.50;;
55672;SDS011;41554;45.366;20.400;2024-02-23T08:24:08;26.45;;;10.40;;
55672;SDS011;41554;45.366;20.400;2024-02-23T08:26:34;27.60;;;10.57;;
55672;SDS011;41554;45.366;20.400;2024-02-23T08:29:03;17.10;;;9.40;;
55672;SDS011;41554;45.366;20.400;2024-02-23T08:31:29;27.67;;;10.27;;
55672;SDS011;41554;45.366;20.400;2024-02-23T08:33:56;12.23;;;9.10;;
55672;SDS011;41554;45.366;20.400;2024-02-23T08:36:22;16.40;;;9.45;;
55672;SDS011;41554;45.366;20.400;2024-02-23T08:38:48;23.80;;;10.18;;
55672;SDS011;41554;45.366;20.400;2024-02-23T08:41:14;19.35;;;10.48;;
55672;SDS011;41554;45.366;20.400;2024-02-23T08:43:40;14.15;;;9.30;;
55672;SDS011;41554;45.366;20.400;2024-02-23T08:46:06;10.18;;;7.40;;
55672;SDS011;41554;45.366;20.400;2024-02-23T08:48:32;10.98;;;7.75;;
55672;SDS011;41554;45.366;20.400;2024-02-23T08:50:58;24.67;;;8.10;;
55672;SDS011;41554;45.366;20.400;2024-02-23T08:53:25;13.20;;;8.93;;
55672;SDS011;41554;45.366;20.400;2024-02-23T08:55:51;16.90;;;10.27;;
55672;SDS011;41554;45.366;20.400;2024-02-23T08:58:17;16.27;;;9.90;;
55672;SDS011;41554;45.366;20.400;2024-02-23T09:00:43;8.38;;;6.43;;
55672;SDS011;41554;45.366;20.400;2024-02-23T09:03:09;17.27;;;9.77;;
55672;SDS011;41554;45.366;20.400;2024-02-23T09:05:35;14.02;;;8.23;;
55672;SDS011;41554;45.366;20.400;2024-02-23T09:08:01;12.15;;;8.68;;
55672;SDS011;41554;45.366;20.400;2024-02-23T09:10:27;14.35;;;7.15;;
55672;SDS011;41554;45.366;20.400;2024-02-23T09:12:53;12.10;;;7.35;;
55672;SDS011;41554;45.366;20.400;2024-02-23T09:15:19;12.63;;;9.02;;
55672;SDS011;41554;45.366;20.400;2024-02-23T09:17:45;11.77;;;8.43;;
55672;SDS011;41554;45.366;20.400;2024-02-23T09:20:11;10.23;;;8.93;;
55672;SDS011;41554;45.366;20.400;2024-02-23T09:22:38;14.65;;;9.43;;
55672;SDS011;41554;45.366;20.400;2024-02-23T09:25:05;30.73;;;10.68;;
55672;SDS011;41554;45.366;20.400;2024-02-23T09:27:31;11.02;;;9.35;;
55672;SDS011;41554;45.366;20.400;2024-02-23T09:29:57;13.30;;;9.68;;
55672;SDS011;41554;45.366;20.400;2024-02-23T09:32:24;13.05;;;9.85;;
55672;SDS011;41554;45.366;20.400;2024-02-23T09:34:50;16.60;;;8.98;;
55672;SDS011;41554;45.366;20.400;2024-02-23T09:37:16;11.13;;;8.85;;
55672;SDS011;41554;45.366;20.400;2024-02-23T09:39:42;14.13;;;9.25;;
55672;SDS011;41554;45.366;20.400;2024-02-23T09:42:09;8.07;;;6.40;;
55672;SDS011;41554;45.366;20.400;2024-02-23T09:44:38;11.80;;;8.02;;
55672;SDS011;41554;45.366;20.400;2024-02-23T09:47:05;13.90;;;8.55;;
55672;SDS011;41554;45.366;20.400;2024-02-23T09:49:39;10.82;;;8.40;;
55672;SDS011;41554;45.366;20.400;2024-02-23T09:52:08;10.63;;;7.57;;
55672;SDS011;41554;45.366;20.400;2024-02-23T09:54:36;8.70;;;7.13;;
55672;SDS011;41554;45.366;20.400;2024-02-23T09:57:03;12.50;;;7.50;;
55672;SDS011;41554;45.366;20.400;2024-02-23T09:59:31;11.38;;;8.38;;
55672;SDS011;41554;45.366;20.400;2024-02-23T10:01:57;9.65;;;6.28;;
55672;SDS011;41554;45.366;20.400;2024-02-23T10:04:23;14.48;;;8.98;;
55672;SDS011;41554;45.366;20.400;2024-02-23T10:06:50;17.25;;;8.80;;
55672;SDS011;41554;45.366;20.400;2024-02-23T10:09:17;21.10;;;9.55;;
55672;SDS011;41554;45.366;20.400;2024-02-23T10:11:44;10.85;;;7.25;;
55672;SDS011;41554;45.366;20.400;2024-02-23T10:14:10;10.25;;;8.30;;
55672;SDS011;41554;45.366;20.400;2024-02-23T10:16:36;14.55;;;9.10;;
55672;SDS011;41554;45.366;20.400;2024-02-23T10:19:03;13.48;;;7.75;;
55672;SDS011;41554;45.366;20.400;2024-02-23T10:21:29;28.17;;;10.55;;
55672;SDS011;41554;45.366;20.400;2024-02-23T10:23:55;14.63;;;9.00;;
55672;SDS011;41554;45.366;20.400;2024-02-23T10:26:21;27.88;;;9.20;;
55672;SDS011;41554;45.366;20.400;2024-02-23T10:28:47;11.15;;;8.25;;
55672;SDS011;41554;45.366;20.400;2024-02-23T10:31:14;13.90;;;7.70;;
55672;SDS011;41554;45.366;20.400;2024-02-23T10:33:40;9.90;;;8.07;;
55672;SDS011;41554;45.366;20.400;2024-02-23T10:36:06;9.23;;;7.85;;
55672;SDS011;41554;45.366;20.400;2024-02-23T10:38:37;23.00;;;7.78;;
55672;SDS011;41554;45.366;20.400;2024-02-23T10:41:05;9.73;;;7.20;;
55672;SDS011;41554;45.366;20.400;2024-02-23T10:43:36;11.30;;;9.05;;
55672;SDS011;41554;45.366;20.400;2024-02-23T10:46:07;13.45;;;8.18;;
55672;SDS011;41554;45.366;20.400;2024-02-23T10:48:38;14.07;;;8.98;;
55672;SDS011;41554;45.366;20.400;2024-02-23T10:51:04;16.17;;;8.65;;
55672;SDS011;41554;45.366;20.400;2024-02-23T10:53:31;23.63;;;5.75;;
55672;SDS011;41554;45.366;20.400;2024-02-23T10:55:57;13.45;;;7.90;;
55672;SDS011;41554;45.366;20.400;2024-02-23T10:58:24;10.60;;;7.60;;
55672;SDS011;41554;45.366;20.400;2024-02-23T11:00:50;14.20;;;7.93;;
55672;SDS011;41554;45.366;20.400;2024-02-23T11:03:16;9.95;;;7.13;;
55672;SDS011;41554;45.366;20.400;2024-02-23T11:05:43;15.07;;;8.63;;
55672;SDS011;41554;45.366;20.400;2024-02-23T11:08:13;12.35;;;9.13;;
55672;SDS011;41554;45.366;20.400;2024-02-23T11:10:50;27.85;;;8.55;;
55672;SDS011;41554;45.366;20.400;2024-02-23T11:13:29;8.75;;;7.55;;
55672;SDS011;41554;45.366;20.400;2024-02-23T11:16:00;10.05;;;7.65;;
55672;SDS011;41554;45.366;20.400;2024-02-23T11:18:27;16.92;;;7.85;;
55672;SDS011;41554;45.366;20.400;2024-02-23T11:20:54;8.10;;;7.07;;
55672;SDS011;41554;45.366;20.400;2024-02-23T11:23:21;12.25;;;7.15;;
55672;SDS011;41554;45.366;20.400;2024-02-23T11:28:29;11.45;;;7.25;;
55672;SDS011;41554;45.366;20.400;2024-02-23T11:30:55;10.45;;;6.55;;
55672;SDS011;41554;45.366;20.400;2024-02-23T11:33:34;15.98;;;6.50;;
55672;SDS011;41554;45.366;20.400;2024-02-23T11:36:09;9.82;;;6.80;;
55672;SDS011;41554;45.366;20.400;2024-02-23T11:38:36;12.02;;;6.78;;
55672;SDS011;41554;45.366;20.400;2024-02-23T11:41:02;11.48;;;7.32;;
55672;SDS011;41554;45.366;20.400;2024-02-23T11:43:28;10.70;;;8.93;;
55672;SDS011;41554;45.366;20.400;2024-02-23T11:45:54;11.25;;;7.88;;
55672;SDS011;41554;45.366;20.400;2024-02-23T11:48:21;11.48;;;7.05;;
55672;SDS011;41554;45.366;20.400;2024-02-23T11:50:48;10.75;;;6.13;;
55672;SDS011;41554;45.366;20.400;2024-02-23T11:53:14;12.80;;;7.72;;
55672;SDS011;41554;45.366;20.400;2024-02-23T11:55:40;21.10;;;7.55;;
55672;SDS011;41554;45.366;20.400;2024-02-23T11:58:06;11.95;;;8.13;;
55672;SDS011;41554;45.366;20.400;2024-02-23T12:00:34;24.23;;;10.70;;
55672;SDS011;41554;45.366;20.400;2024-02-23T12:03:00;16.75;;;8.20;;
55672;SDS011;41554;45.366;20.400;2024-02-23T12:05:26;13.23;;;7.60;;
55672;SDS011;41554;45.366;20.400;2024-02-23T12:07:53;11.10;;;7.28;;
55672;SDS011;41554;45.366;20.400;2024-02-23T12:10:19;10.52;;;8.10;;
55672;SDS011;41554;45.366;20.400;2024-02-23T12:12:46;19.83;;;9.27;;
55672;SDS011;41554;45.366;20.400;2024-02-23T12:15:12;11.30;;;6.10;;
55672;SDS011;41554;45.366;20.400;2024-02-23T12:17:46;8.93;;;7.15;;
55672;SDS011;41554;45.366;20.400;2024-02-23T12:20:12;10.68;;;7.30;;
55672;SDS011;41554;45.366;20.400;2024-02-23T12:22:40;17.40;;;8.18;;
55672;SDS011;41554;45.366;20.400;2024-02-23T12:25:06;11.07;;;7.43;;
55672;SDS011;41554;45.366;20.400;2024-02-23T12:27:32;13.07;;;10.23;;
55672;SDS011;41554;45.366;20.400;2024-02-23T12:29:58;20.75;;;9.27;;
55672;SDS011;41554;45.366;20.400;2024-02-23T12:32:25;32.08;;;10.05;;
55672;SDS011;41554;45.366;20.400;2024-02-23T12:34:52;11.52;;;8.68;;
55672;SDS011;41554;45.366;20.400;2024-02-23T12:37:18;13.90;;;9.35;;
55672;SDS011;41554;45.366;20.400;2024-02-23T12:39:47;13.70;;;8.77;;
55672;SDS011;41554;45.366;20.400;2024-02-23T12:42:13;16.52;;;8.48;;
55672;SDS011;41554;45.366;20.400;2024-02-23T12:44:39;7.50;;;5.78;;
55672;SDS011;41554;45.366;20.400;2024-02-23T12:47:05;12.35;;;7.70;;
55672;SDS011;41554;45.366;20.400;2024-02-23T12:49:32;10.18;;;8.73;;
55672;SDS011;41554;45.366;20.400;2024-02-23T12:51:58;12.60;;;7.40;;
55672;SDS011;41554;45.366;20.400;2024-02-23T12:54:24;14.60;;;7.70;;
55672;SDS011;41554;45.366;20.400;2024-02-23T12:56:50;12.85;;;7.88;;
55672;SDS011;41554;45.366;20.400;2024-02-23T12:59:16;9.90;;;6.90;;
55672;SDS011;41554;45.366;20.400;2024-02-23T13:01:43;7.70;;;5.90;;
55672;SDS011;41554;45.366;20.400;2024-02-23T13:04:09;20.25;;;9.38;;
55672;SDS011;41554;45.366;20.400;2024-02-23T13:06:38;13.52;;;8.75;;
55672;SDS011;41554;45.366;20.400;2024-02-23T13:09:05;14.40;;;8.07;;
55672;SDS011;41554;45.366;20.400;2024-02-23T13:11:36;10.40;;;7.50;;
55672;SDS011;41554;45.366;20.400;2024-02-23T13:14:03;25.08;;;8.23;;
55672;SDS011;41554;45.366;20.400;2024-02-23T13:16:29;15.25;;;8.13;;
55672;SDS011;41554;45.366;20.400;2024-02-23T13:18:56;12.85;;;6.43;;
55672;SDS011;41554;45.366;20.400;2024-02-23T13:21:22;12.07;;;8.23;;
55672;SDS011;41554;45.366;20.400;2024-02-23T13:23:49;19.42;;;7.72;;
55672;SDS011;41554;45.366;20.400;2024-02-23T13:26:15;13.25;;;7.68;;
55672;SDS011;41554;45.366;20.400;2024-02-23T13:28:42;11.10;;;8.43;;
55672;SDS011;41554;45.366;20.400;2024-02-23T13:31:08;10.57;;;6.70;;
55672;SDS011;41554;45.366;20.400;2024-02-23T13:33:35;9.93;;;6.63;;
55672;SDS011;41554;45.366;20.400;2024-02-23T13:36:01;8.90;;;7.32;;
55672;SDS011;41554;45.366;20.400;2024-02-23T13:38:27;11.80;;;7.93;;
55672;SDS011;41554;45.366;20.400;2024-02-23T13:40:53;13.57;;;8.68;;
55672;SDS011;41554;45.366;20.400;2024-02-23T13:43:19;13.27;;;6.75;;
55672;SDS011;41554;45.366;20.400;2024-02-23T13:45:49;14.23;;;8.73;;
55672;SDS011;41554;45.366;20.400;2024-02-23T13:48:19;13.63;;;7.95;;
55672;SDS011;41554;45.366;20.400;2024-02-23T13:50:48;14.98;;;8.52;;
55672;SDS011;41554;45.366;20.400;2024-02-23T13:53:14;11.25;;;7.15;;
55672;SDS011;41554;45.366;20.400;2024-02-23T13:55:41;11.70;;;7.28;;
55672;SDS011;41554;45.366;20.400;2024-02-23T13:58:09;11.32;;;7.47;;
55672;SDS011;41554;45.366;20.400;2024-02-23T14:00:35;8.65;;;7.40;;
55672;SDS011;41554;45.366;20.400;2024-02-23T14:03:01;13.10;;;9.38;;
55672;SDS011;41554;45.366;20.400;2024-02-23T14:05:27;9.38;;;8.02;;
55672;SDS011;41554;45.366;20.400;2024-02-23T14:07:53;14.75;;;7.63;;
55672;SDS011;41554;45.366;20.400;2024-02-23T14:10:19;14.43;;;7.68;;
55672;SDS011;41554;45.366;20.400;2024-02-23T14:12:45;16.58;;;8.85;;
55672;SDS011;41554;45.366;20.400;2024-02-23T14:15:12;10.45;;;7.43;;
55672;SDS011;41554;45.366;20.400;2024-02-23T14:17:38;10.63;;;7.32;;